sensor_id;sensor_type;location;lat;lon;timestamp;P1;durP1;ratioP1;P2;durP2;ratioP2
61188;SDS011;47054;39.716;2.904;2023-07-13T00:02:16;25.63;;;6.25;;
61188;SDS011;47054;39.716;2.904;2023-07-13T00:05:02;19.75;;;6.15;;
61188;SDS011;47054;39.716;2.904;2023-07-13T00:07:47;30.33;;;6.60;;
61188;SDS011;47054;39.716;2.904;2023-07-13T00:10:32;23.25;;;6.03;;
61188;SDS011;47054;39.716;2.904;2023-07-13T00:13:16;23.20;;;6.20;;
61188;SDS011;47054;39.716;2.904;2023-07-13T00:16:01;20.58;;;6.20;;
61188;SDS011;47054;39.716;2.904;2023-07-13T00:18:46;21.80;;;6.07;;
61188;SDS011;47054;39.716;2.904;2023-07-13T00:21:31;24.58;;;6.65;;
61188;SDS011;47054;39.716;2.904;2023-07-13T00:24:17;24.48;;;7.65;;
61188;SDS011;47054;39.716;2.904;2023-07-13T00:27:08;32.73;;;6.70;;
61188;SDS011;47054;39.716;2.904;2023-07-13T00:29:53;21.33;;;5.90;;
61188;SDS011;47054;39.716;2.904;2023-07-13T00:32:38;26.05;;;6.90;;
61188;SDS011;47054;39.716;2.904;2023-07-13T00:35:22;26.75;;;5.95;;
61188;SDS011;47054;39.716;2.904;2023-07-13T00:38:09;22.00;;;6.45;;
61188;SDS011;47054;39.716;2.904;2023-07-13T00:40:54;23.50;;;8.00;;
61188;SDS011;47054;39.716;2.904;2023-07-13T00:43:39;25.40;;;6.45;;
61188;SDS011;47054;39.716;2.904;2023-07-13T00:46:25;22.73;;;6.38;;
61188;SDS011;47054;39.716;2.904;2023-07-13T00:49:17;28.70;;;6.88;;
61188;SDS011;47054;39.716;2.904;2023-07-13T00:52:08;18.77;;;5.50;;
61188;SDS011;47054;39.716;2.904;2023-07-13T00:54:53;27.23;;;6.10;;
61188;SDS011;47054;39.716;2.904;2023-07-13T00:57:39;16.50;;;6.28;;
61188;SDS011;47054;39.716;2.904;2023-07-13T01:00:25;21.88;;;6.95;;
61188;SDS011;47054;39.716;2.904;2023-07-13T01:03:12;15.00;;;5.50;;
61188;SDS011;47054;39.716;2.904;2023-07-13T01:05:57;15.35;;;5.70;;
61188;SDS011;47054;39.716;2.904;2023-07-13T01:08:42;17.85;;;5.60;;
61188;SDS011;47054;39.716;2.904;2023-07-13T01:11:26;20.95;;;5.88;;
61188;SDS011;47054;39.716;2.904;2023-07-13T01:14:14;23.13;;;6.43;;
61188;SDS011;47054;39.716;2.904;2023-07-13T01:17:01;20.27;;;6.25;;
61188;SDS011;47054;39.716;2.904;2023-07-13T01:19:47;21.90;;;5.93;;
61188;SDS011;47054;39.716;2.904;2023-07-13T01:22:31;16.92;;;6.00;;
61188;SDS011;47054;39.716;2.904;2023-07-13T01:25:16;24.25;;;5.90;;
61188;SDS011;47054;39.716;2.904;2023-07-13T01:28:03;25.55;;;5.80;;
61188;SDS011;47054;39.716;2.904;2023-07-13T01:30:49;20.80;;;5.88;;
61188;SDS011;47054;39.716;2.904;2023-07-13T01:33:33;30.40;;;5.40;;
61188;SDS011;47054;39.716;2.904;2023-07-13T01:36:18;22.60;;;5.75;;
61188;SDS011;47054;39.716;2.904;2023-07-13T01:39:05;18.20;;;6.22;;
61188;SDS011;47054;39.716;2.904;2023-07-13T01:41:50;24.40;;;6.82;;
61188;SDS011;47054;39.716;2.904;2023-07-13T01:44:37;29.58;;;8.07;;
61188;SDS011;47054;39.716;2.904;2023-07-13T01:47:22;26.25;;;6.90;;
61188;SDS011;47054;39.716;2.904;2023-07-13T01:50:08;18.05;;;5.18;;
61188;SDS011;47054;39.716;2.904;2023-07-13T01:52:53;23.05;;;4.97;;
61188;SDS011;47054;39.716;2.904;2023-07-13T01:55:38;24.92;;;5.00;;
61188;SDS011;47054;39.716;2.904;2023-07-13T01:58:23;20.30;;;5.18;;
61188;SDS011;47054;39.716;2.904;2023-07-13T02:01:08;16.10;;;4.40;;
61188;SDS011;47054;39.716;2.904;2023-07-13T02:03:52;16.13;;;5.25;;
61188;SDS011;47054;39.716;2.904;2023-07-13T02:06:39;24.67;;;4.63;;
61188;SDS011;47054;39.716;2.904;2023-07-13T02:09:23;15.43;;;4.75;;
61188;SDS011;47054;39.716;2.904;2023-07-13T02:12:08;18.10;;;4.65;;
61188;SDS011;47054;39.716;2.904;2023-07-13T02:14:53;18.73;;;4.35;;
61188;SDS011;47054;39.716;2.904;2023-07-13T02:17:37;22.33;;;4.72;;
61188;SDS011;47054;39.716;2.904;2023-07-13T02:20:22;12.23;;;3.63;;
61188;SDS011;47054;39.716;2.904;2023-07-13T02:23:07;11.95;;;4.15;;
61188;SDS011;47054;39.716;2.904;2023-07-13T02:25:58;12.85;;;4.70;;
61188;SDS011;47054;39.716;2.904;2023-07-13T02:28:46;12.43;;;4.05;;
61188;SDS011;47054;39.716;2.904;2023-07-13T02:31:31;19.23;;;3.92;;
61188;SDS011;47054;39.716;2.904;2023-07-13T02:34:16;8.30;;;4.10;;
61188;SDS011;47054;39.716;2.904;2023-07-13T02:37:01;12.13;;;3.70;;
61188;SDS011;47054;39.716;2.904;2023-07-13T02:39:46;21.42;;;4.10;;
61188;SDS011;47054;39.716;2.904;2023-07-13T02:42:31;12.68;;;4.00;;
61188;SDS011;47054;39.716;2.904;2023-07-13T02:45:18;20.83;;;4.00;;
61188;SDS011;47054;39.716;2.904;2023-07-13T02:48:03;14.93;;;3.72;;
61188;SDS011;47054;39.716;2.904;2023-07-13T02:50:48;13.77;;;4.28;;
61188;SDS011;47054;39.716;2.904;2023-07-13T02:53:32;13.30;;;3.50;;
61188;SDS011;47054;39.716;2.904;2023-07-13T02:56:18;14.25;;;3.75;;
61188;SDS011;47054;39.716;2.904;2023-07-13T02:59:07;17.42;;;3.33;;
61188;SDS011;47054;39.716;2.904;2023-07-13T03:01:52;9.93;;;3.60;;
61188;SDS011;47054;39.716;2.904;2023-07-13T03:04:37;18.80;;;3.50;;
61188;SDS011;47054;39.716;2.904;2023-07-13T03:07:22;17.50;;;3.38;;
61188;SDS011;47054;39.716;2.904;2023-07-13T03:10:09;12.50;;;3.17;;
61188;SDS011;47054;39.716;2.904;2023-07-13T03:13:01;12.07;;;2.83;;
61188;SDS011;47054;39.716;2.904;2023-07-13T03:15:48;15.80;;;3.28;;
61188;SDS011;47054;39.716;2.904;2023-07-13T03:18:33;10.65;;;3.20;;
61188;SDS011;47054;39.716;2.904;2023-07-13T03:21:21;11.77;;;3.00;;
61188;SDS011;47054;39.716;2.904;2023-07-13T03:24:06;11.85;;;3.45;;
61188;SDS011;47054;39.716;2.904;2023-07-13T03:26:51;16.80;;;3.33;;
61188;SDS011;47054;39.716;2.904;2023-07-13T03:29:36;14.80;;;3.38;;
61188;SDS011;47054;39.716;2.904;2023-07-13T03:32:22;19.90;;;3.90;;
61188;SDS011;47054;39.716;2.904;2023-07-13T03:35:07;13.85;;;3.53;;
61188;SDS011;47054;39.716;2.904;2023-07-13T03:37:54;15.75;;;3.40;;
61188;SDS011;47054;39.716;2.904;2023-07-13T03:40:39;15.48;;;3.38;;
61188;SDS011;47054;39.716;2.904;2023-07-13T03:43:24;16.10;;;3.47;;
61188;SDS011;47054;39.716;2.904;2023-07-13T03:46:10;12.00;;;3.13;;
61188;SDS011;47054;39.716;2.904;2023-07-13T03:48:55;19.25;;;3.60;;
61188;SDS011;47054;39.716;2.904;2023-07-13T03:51:41;12.88;;;2.88;;
61188;SDS011;47054;39.716;2.904;2023-07-13T03:54:26;10.07;;;3.10;;
61188;SDS011;47054;39.716;2.904;2023-07-13T03:57:11;9.43;;;2.60;;
61188;SDS011;47054;39.716;2.904;2023-07-13T03:59:56;12.35;;;3.30;;
61188;SDS011;47054;39.716;2.904;2023-07-13T04:02:41;25.50;;;6.20;;
61188;SDS011;47054;39.716;2.904;2023-07-13T04:05:26;23.33;;;6.97;;
61188;SDS011;47054;39.716;2.904;2023-07-13T04:08:10;20.70;;;6.65;;
61188;SDS011;47054;39.716;2.904;2023-07-13T04:10:55;17.00;;;5.70;;
61188;SDS011;47054;39.716;2.904;2023-07-13T04:13:41;12.38;;;4.15;;
61188;SDS011;47054;39.716;2.904;2023-07-13T04:16:26;13.35;;;3.22;;
61188;SDS011;47054;39.716;2.904;2023-07-13T04:19:10;17.45;;;3.75;;
61188;SDS011;47054;39.716;2.904;2023-07-13T04:21:55;15.05;;;3.25;;
61188;SDS011;47054;39.716;2.904;2023-07-13T04:24:40;12.63;;;3.15;;
61188;SDS011;47054;39.716;2.904;2023-07-13T04:27:24;15.55;;;3.20;;
61188;SDS011;47054;39.716;2.904;2023-07-13T04:30:09;16.83;;;3.42;;
61188;SDS011;47054;39.716;2.904;2023-07-13T19:28:53;7.80;;;2.10;;
61188;SDS011;47054;39.716;2.904;2023-07-13T19:31:40;5.20;;;2.17;;
61188;SDS011;47054;39.716;2.904;2023-07-13T19:34:25;10.75;;;2.35;;
61188;SDS011;47054;39.716;2.904;2023-07-13T19:37:14;13.05;;;2.25;;
61188;SDS011;47054;39.716;2.904;2023-07-13T19:40:01;12.85;;;2.35;;
61188;SDS011;47054;39.716;2.904;2023-07-13T19:42:50;9.38;;;2.10;;
61188;SDS011;47054;39.716;2.904;2023-07-13T19:45:34;13.20;;;2.33;;
61188;SDS011;47054;39.716;2.904;2023-07-13T19:48:19;6.40;;;2.25;;
61188;SDS011;47054;39.716;2.904;2023-07-13T19:51:04;6.70;;;2.83;;
61188;SDS011;47054;39.716;2.904;2023-07-13T19:53:53;8.98;;;1.85;;
61188;SDS011;47054;39.716;2.904;2023-07-13T19:56:43;11.23;;;2.20;;
61188;SDS011;47054;39.716;2.904;2023-07-13T19:59:31;13.02;;;2.10;;
61188;SDS011;47054;39.716;2.904;2023-07-13T20:02:17;11.27;;;3.55;;
61188;SDS011;47054;39.716;2.904;2023-07-13T20:05:02;6.07;;;2.15;;
61188;SDS011;47054;39.716;2.904;2023-07-13T20:07:56;6.90;;;2.20;;
61188;SDS011;47054;39.716;2.904;2023-07-13T20:10:43;7.20;;;2.83;;
61188;SDS011;47054;39.716;2.904;2023-07-13T20:13:27;6.70;;;2.10;;
61188;SDS011;47054;39.716;2.904;2023-07-13T20:16:16;9.15;;;2.10;;
61188;SDS011;47054;39.716;2.904;2023-07-13T20:19:01;8.80;;;2.13;;
61188;SDS011;47054;39.716;2.904;2023-07-13T20:21:46;6.13;;;1.92;;
61188;SDS011;47054;39.716;2.904;2023-07-13T20:24:31;8.25;;;2.40;;
61188;SDS011;47054;39.716;2.904;2023-07-13T20:27:16;7.93;;;2.10;;
61188;SDS011;47054;39.716;2.904;2023-07-13T20:30:01;5.38;;;2.00;;
61188;SDS011;47054;39.716;2.904;2023-07-13T20:32:46;4.88;;;2.10;;
61188;SDS011;47054;39.716;2.904;2023-07-13T20:35:32;9.60;;;2.30;;
61188;SDS011;47054;39.716;2.904;2023-07-13T20:38:18;9.20;;;2.40;;
61188;SDS011;47054;39.716;2.904;2023-07-13T20:41:03;10.20;;;3.35;;
61188;SDS011;47054;39.716;2.904;2023-07-13T20:43:48;7.57;;;2.10;;
61188;SDS011;47054;39.716;2.904;2023-07-13T20:46:33;9.57;;;2.38;;
61188;SDS011;47054;39.716;2.904;2023-07-13T20:49:19;9.50;;;2.22;;
61188;SDS011;47054;39.716;2.904;2023-07-13T20:52:08;7.47;;;1.98;;
61188;SDS011;47054;39.716;2.904;2023-07-13T20:54:56;10.50;;;2.35;;
61188;SDS011;47054;39.716;2.904;2023-07-13T20:57:41;8.00;;;2.25;;
61188;SDS011;47054;39.716;2.904;2023-07-13T21:00:27;17.50;;;2.40;;
61188;SDS011;47054;39.716;2.904;2023-07-13T21:03:15;7.43;;;2.50;;
61188;SDS011;47054;39.716;2.904;2023-07-13T21:08:56;7.13;;;2.35;;
61188;SDS011;47054;39.716;2.904;2023-07-13T21:11:41;5.78;;;2.10;;
61188;SDS011;47054;39.716;2.904;2023-07-13T21:14:26;4.88;;;2.05;;
61188;SDS011;47054;39.716;2.904;2023-07-13T21:17:11;5.32;;;2.50;;
61188;SDS011;47054;39.716;2.904;2023-07-13T21:19:57;7.05;;;2.05;;
61188;SDS011;47054;39.716;2.904;2023-07-13T21:22:42;10.25;;;2.42;;
61188;SDS011;47054;39.716;2.904;2023-07-13T21:25:28;7.53;;;2.25;;
61188;SDS011;47054;39.716;2.904;2023-07-13T21:28:19;7.03;;;2.05;;
61188;SDS011;47054;39.716;2.904;2023-07-13T21:31:12;10.10;;;2.20;;
61188;SDS011;47054;39.716;2.904;2023-07-13T21:34:15;9.82;;;3.00;;
61188;SDS011;47054;39.716;2.904;2023-07-13T21:37:03;5.68;;;2.25;;
61188;SDS011;47054;39.716;2.904;2023-07-13T21:39:51;6.63;;;2.08;;
61188;SDS011;47054;39.716;2.904;2023-07-13T21:42:36;5.50;;;2.10;;
61188;SDS011;47054;39.716;2.904;2023-07-13T21:45:24;6.60;;;2.05;;
61188;SDS011;47054;39.716;2.904;2023-07-13T21:48:11;7.15;;;2.10;;
61188;SDS011;47054;39.716;2.904;2023-07-13T21:50:56;9.85;;;2.08;;
61188;SDS011;47054;39.716;2.904;2023-07-13T21:53:43;9.02;;;2.08;;
61188;SDS011;47054;39.716;2.904;2023-07-13T21:56:28;6.57;;;2.03;;
61188;SDS011;47054;39.716;2.904;2023-07-13T21:59:18;8.93;;;1.90;;
61188;SDS011;47054;39.716;2.904;2023-07-13T22:02:10;11.35;;;2.10;;
61188;SDS011;47054;39.716;2.904;2023-07-13T22:04:56;6.47;;;1.98;;
61188;SDS011;47054;39.716;2.904;2023-07-13T22:07:42;12.07;;;2.03;;
61188;SDS011;47054;39.716;2.904;2023-07-13T22:10:28;16.77;;;2.85;;
61188;SDS011;47054;39.716;2.904;2023-07-13T22:13:12;4.32;;;1.88;;
61188;SDS011;47054;39.716;2.904;2023-07-13T22:15:57;5.40;;;1.70;;
61188;SDS011;47054;39.716;2.904;2023-07-13T22:18:43;6.57;;;2.00;;
61188;SDS011;47054;39.716;2.904;2023-07-13T22:21:28;8.30;;;2.17;;
61188;SDS011;47054;39.716;2.904;2023-07-13T22:24:18;5.63;;;2.13;;
61188;SDS011;47054;39.716;2.904;2023-07-13T22:27:09;6.00;;;1.88;;
61188;SDS011;47054;39.716;2.904;2023-07-13T22:29:57;4.75;;;1.83;;
61188;SDS011;47054;39.716;2.904;2023-07-13T22:32:42;6.35;;;2.10;;
61188;SDS011;47054;39.716;2.904;2023-07-13T22:35:28;6.45;;;2.33;;
61188;SDS011;47054;39.716;2.904;2023-07-13T22:38:17;5.47;;;2.55;;
61188;SDS011;47054;39.716;2.904;2023-07-13T22:41:03;10.32;;;3.53;;
61188;SDS011;47054;39.716;2.904;2023-07-13T22:43:48;5.50;;;2.20;;
61188;SDS011;47054;39.716;2.904;2023-07-13T22:46:33;4.93;;;1.88;;
61188;SDS011;47054;39.716;2.904;2023-07-13T22:49:19;7.60;;;2.08;;
61188;SDS011;47054;39.716;2.904;2023-07-13T22:52:10;4.43;;;1.90;;
61188;SDS011;47054;39.716;2.904;2023-07-13T22:54:55;5.60;;;2.03;;
61188;SDS011;47054;39.716;2.904;2023-07-13T22:57:42;7.32;;;2.33;;
61188;SDS011;47054;39.716;2.904;2023-07-13T23:00:32;6.25;;;2.20;;
61188;SDS011;47054;39.716;2.904;2023-07-13T23:03:17;5.28;;;2.20;;
61188;SDS011;47054;39.716;2.904;2023-07-13T23:06:02;8.30;;;2.17;;
61188;SDS011;47054;39.716;2.904;2023-07-13T23:08:47;7.13;;;2.20;;
61188;SDS011;47054;39.716;2.904;2023-07-13T23:11:33;7.35;;;2.58;;
61188;SDS011;47054;39.716;2.904;2023-07-13T23:14:18;7.78;;;2.20;;
61188;SDS011;47054;39.716;2.904;2023-07-13T23:17:02;6.57;;;2.40;;
61188;SDS011;47054;39.716;2.904;2023-07-13T23:19:47;8.25;;;2.60;;
61188;SDS011;47054;39.716;2.904;2023-07-13T23:22:32;10.57;;;2.75;;
61188;SDS011;47054;39.716;2.904;2023-07-13T23:25:16;6.55;;;2.38;;
61188;SDS011;47054;39.716;2.904;2023-07-13T23:28:03;5.72;;;2.28;;
61188;SDS011;47054;39.716;2.904;2023-07-13T23:30:48;7.75;;;2.55;;
61188;SDS011;47054;39.716;2.904;2023-07-13T23:33:33;6.05;;;2.40;;
61188;SDS011;47054;39.716;2.904;2023-07-13T23:36:18;7.05;;;2.33;;
61188;SDS011;47054;39.716;2.904;2023-07-13T23:39:05;7.40;;;2.10;;
61188;SDS011;47054;39.716;2.904;2023-07-13T23:41:55;7.97;;;2.30;;
61188;SDS011;47054;39.716;2.904;2023-07-13T23:44:40;5.80;;;2.20;;
61188;SDS011;47054;39.716;2.904;2023-07-13T23:47:24;5.55;;;2.05;;
61188;SDS011;47054;39.716;2.904;2023-07-13T23:50:13;6.50;;;2.25;;
61188;SDS011;47054;39.716;2.904;2023-07-13T23:53:02;5.05;;;2.20;;
61188;SDS011;47054;39.716;2.904;2023-07-13T23:55:47;6.35;;;2.03;;
61188;SDS011;47054;39.716;2.904;2023-07-13T23:58:31;6.03;;;2.55;;
